CNY8 weather

Toronto (Sunnybrook Medical Centre) Heliport
Toronto, Ontario, Canada

Public forecast

Using degrees Celsius for public forecast. Weather courtesy of forecast.io.

METAR (pilot weather report)

Closest report is Billy Bishop Toronto City Centre Airport, 5.7 nm (10.6 km) S. Retrieved 2019/01/24 10:00 UTC (52 minutes ago):

CYTZ 241000Z AUTO 25006KT 1 1/4SM -SN BKN006 OVC011 00/M00 A2957 RMK ICG SLP017

TAF (pilot weather forecast)

Closest forecast is Billy Bishop Toronto City Centre Airport, 5.7 nm (10.6 km) S. Retrieved 2019/01/24 08:42 UTC (2 hours ago):

TAF CYTZ 240740Z 2408/2508 28008KT 6SM BR SCT012 OVC050 TEMPO 2408/2410 4SM -SHRA BR BKN012 OVC050 PROB30 2408/2410 5SM -SHPL BR OVC012 FM241000 29010KT 21/2SM -SN BKN015 OVC030 TEMPO 2410/2414 6SM -SN SCT015 OVC030 FM241400 31012G22KT P6SM BKN030 FM250000 27015G25KT 6SM -SHSN BKN030 OVC060 FM250200 25012G22KT 4SM -SHSN OVC030 RMK FCST BASED ON AUTO OBS. NXT FCST BY 241400Z